Latest Coastal Weather Observations for Ulladulla

IDN60701

Issued at 6:31 am EDT Sunday 22 October 2017 (issued every 10 minutes, with the page automatically refreshed every 10 minutes)

About coastal observations | Map of coastal stations | Coastal observations for NSW | Marine services | Other Formats
Station Details ID: 069138 Name: ULLADULLA AWS Lat: -35.36 Lon: 150.48 Height: 35.7 m
Data from the previous 72 hours. | See also: Recent months at Ulladulla
Date/Time
EDT
Temp
°C
Wind Pressure Rain since
9am
mm
Weather Cloud Vis
km
Sea
Height
m
Swell
Dir  Spd
kts
Gust
kts
hPa Trend Height
m
Period
s
Dir
22/06:30am 13.2 WSW 3 4 1015.1 - 0.0 - - - - - - -
22/06:00am 13.5 CALM 0 0 1014.8 - 0.0 - - - - - - -
22/05:30am 13.4 W 1 3 1014.9 - 0.0 - - - - - - -
22/05:00am 13.4 WSW 2 3 1014.9 - 0.0 - - - - - - -
22/04:30am 13.4 WSW 1 3 1015.2 - 0.0 - - - - - - -
22/04:00am 13.4 WSW 3 5 1015.4 - 0.0 - - - - - - -
22/03:30am 13.4 SW 4 6 1015.6 - 0.0 - - - - - - -
22/03:00am 13.4 SW 3 5 1016.0 - 0.0 - - - - - - -
22/02:30am 13.7 W 2 3 1016.2 - 0.0 - - - - - - -
22/02:00am 13.7 WSW 2 3 1016.5 - 0.0 - - - - - - -
22/01:30am 13.6 W 2 3 1016.9 - 0.0 - - - - - - -
22/01:00am 13.7 W 3 4 1017.3 - 0.0 - - - - - - -
22/12:30am 13.9 NE 1 3 1017.7 - 0.0 - - - - - - -
22/12:00am 13.9 CALM 0 0 1018.0 - 0.0 - - - - - - -
 
Date/Time
EDT
Temp
°C
Wind Pressure Rain since
9am
mm
Weather Cloud Vis
km
Sea
Height
m
Swell
Dir  Spd
kts
Gust
kts
hPa Trend Height
m
Period
s
Dir
21/11:30pm 13.9 NE 2 3 1018.3 - 0.0 - - - - - - -
21/11:00pm 14.0 ENE 2 3 1018.5 - 0.0 - - - - - - -
21/10:30pm 14.1 CALM 0 2 1018.6 - 0.0 - - - - - - -
21/10:00pm 14.1 CALM 0 0 1018.8 - 0.0 - - - - - - -
21/09:30pm 14.3 E 1 3 1019.0 - 0.0 - - - - - - -
21/09:00pm 14.1 E 2 3 1019.0 - 0.0 - - - - - - -
21/08:30pm 13.4 E 1 2 1018.9 - 0.0 - - - - - - -
21/08:00pm 13.7 E 1 2 1018.7 - 0.0 - - - - - - -
21/07:30pm 14.0 ESE 3 4 1018.6 - 0.0 - - - - - - -
21/07:00pm 14.5 E 1 3 1018.4 - 0.0 - - - - - - -
21/06:30pm 15.0 ESE 3 5 1018.2 - 0.0 - - - - - - -
21/06:00pm 15.4 E 3 6 1018.2 - 0.0 - - - - - - -
21/05:30pm 15.8 ENE 3 5 1018.2 - 0.0 - - - - - - -
21/05:00pm 16.6 E 4 7 1018.4 - 0.0 - - - - - - -
21/04:30pm 16.6 SE 4 7 1018.5 - 0.0 - - - - - - -
21/04:00pm 16.4 SE 5 8 1018.7 - 0.0 - - - - - - -
21/03:30pm 16.4 SSE 5 8 1019.1 - 0.0 - - - - - - -
21/03:00pm 16.2 SSE 8 11 1019.8 - 0.0 - - - - - - -
21/02:30pm 16.3 SSE 8 11 1020.1 - 0.0 - - - - - - -
21/02:00pm 16.7 SSE 8 11 1020.6 - 0.0 - - - - - - -
21/01:30pm 16.4 S 8 12 1021.0 - 0.0 - - - - - - -
21/01:00pm 16.5 S 10 14 1021.4 - 0.0 - - - - - - -
21/12:30pm 15.7 S 14 18 1021.9 - 0.0 - - - - - - -
21/12:00pm 15.7 S 14 16 1022.4 - 0.0 - - - - - - -
21/11:30am 16.2 S 11 17 1022.7 - 0.0 - - - - - - -
21/11:00am 15.6 S 12 17 1023.0 - 0.0 - - - - - - -
21/10:30am 15.5 SSW 11 16 1023.2 - 0.0 - - - - - - -
21/10:00am 14.8 SSW 11 18 1023.2 - 0.0 - - - - - - -
21/09:30am 14.9 SSW 11 16 1023.2 - 0.0 - - - - - - -
21/09:00am 14.1 SSW 10 17 1023.2 - 0.2 - - - - - - -
21/08:30am 13.5 SSW 9 14 1023.2 - 0.2 - - - - - - -
21/08:00am 13.2 SSW 9 12 1023.2 - 0.2 - - - - - - -
21/07:30am 12.1 SW 6 10 1023.2 - 0.2 - - - - - - -
21/07:00am 11.4 SW 6 10 1023.0 - 0.2 - - - - - - -
21/06:30am 10.5 SW 7 10 1022.8 - 0.2 - - - - - - -
21/06:00am 10.2 SW 7 11 1022.8 - 0.2 - - - - - - -
21/05:30am 10.1 SW 6 11 1022.8 - 0.2 - - - - - - -
21/05:00am 10.3 WSW 7 11 1022.9 - 0.2 - - - - - - -
21/04:30am 10.6 WSW 7 9 1023.0 - 0.2 - - - - - - -
21/04:00am 11.2 SW 8 11 1023.2 - 0.2 - - - - - - -
21/03:30am 11.9 SW 8 12 1023.3 - 0.2 - - - - - - -
21/03:00am 13.8 S 19 24 1023.4 - 0.2 - - - - - - -
21/02:30am 13.9 S 22 27 1023.6 - 0.2 - - - - - - -
21/02:00am 14.1 S 22 27 1024.1 - 0.2 - - - - - - -
21/01:30am 14.2 S 22 27 1024.4 - 0.2 - - - - - - -
21/01:00am 14.3 S 18 24 1024.8 - 0.2 - - - - - - -
21/12:30am 14.3 S 17 23 1025.0 - 0.2 - - - - - - -
21/12:00am 14.6 S 16 22 1025.2 - 0.2 - - - - - - -
 
Date/Time
EDT
Temp
°C
Wind Pressure Rain since
9am
mm
Weather Cloud Vis
km
Sea
Height
m
Swell
Dir  Spd
kts
Gust
kts
hPa Trend Height
m
Period
s
Dir
20/11:30pm 14.9 S 16 24 1025.2 - 0.2 - - - - - - -
20/11:00pm 14.8 S 15 23 1025.1 - 0.2 - - - - - - -
20/10:30pm 15.1 S 15 20 1025.1 - 0.2 - - - - - - -
20/10:00pm 15.1 S 14 21 1025.1 - 0.2 - - - - - - -
20/09:30pm 15.3 S 13 20 1024.9 - 0.2 - - - - - - -
20/09:00pm 15.4 SSE 13 19 1025.0 - 0.2 Recent precip. - - - - - -
20/08:30pm 14.8 S 13 18 1024.8 - 0.2 - - - - - - -
20/08:00pm 15.4 SSE 13 18 1024.2 - 0.0 - - - - - - -
20/07:30pm 15.5 SSE 11 18 1023.9 - 0.0 - - - - - - -
20/07:00pm 15.5 SSE 13 18 1023.4 - 0.0 - - - - - - -
20/06:30pm 15.6 S 12 17 1023.1 - 0.0 - - - - - - -
20/06:00pm 15.4 SSE 12 17 1022.7 - 0.0 - - - - - - -
20/05:30pm 15.1 S 12 18 1022.4 - 0.0 - - - - - - -
20/05:00pm 14.1 S 6 14 1022.4 - 0.0 - - - - - - -
20/04:30pm 13.8 SW 5 9 1022.3 - 0.0 - - - - - - -
20/04:00pm 13.9 S 10 14 1022.1 - 0.0 - - - - - - -
20/03:30pm 14.2 S 12 16 1022.4 - 0.0 - - - - - - -
20/03:00pm 15.2 S 13 20 1022.5 - 0.0 - - - - - - -
20/02:30pm 15.1 S 11 15 1022.7 - 0.0 - - - - - - -
20/02:00pm 15.4 S 12 18 1022.6 - 0.0 - - - - - - -
20/01:30pm 15.6 S 12 21 1022.7 - 0.0 - - - - - - -
20/01:00pm 15.4 S 14 19 1022.7 - 0.0 - - - - - - -
20/12:30pm 15.0 S 17 24 1022.8 - 0.0 - - - - - - -
20/12:00pm 14.6 S 17 23 1022.7 - 0.0 - - - - - - -
20/11:30am 14.1 S 18 26 1022.9 - 0.0 - - - - - - -
20/11:00am 13.6 S 18 24 1023.1 - 0.0 - - - - - - -
20/10:30am 14.6 S 21 25 1023.0 - 0.0 - - - - - - -
20/10:00am 14.8 S 18 27 1022.5 - 0.0 - - - - - - -
20/09:30am 15.4 S 13 18 1022.4 - 0.0 - - - - - - -
20/09:00am 15.7 S 15 20 1022.1 - 7.2 - - - - - - -
20/08:30am 15.5 S 10 15 1022.0 - 7.2 - - - - - - -
20/08:00am 15.4 S 12 17 1021.4 - 7.2 - - - - - - -
20/07:30am 15.3 S 16 20 1020.9 - 7.2 - - - - - - -
20/07:00am 15.4 S 11 16 1020.5 - 7.2 - - - - - - -
20/06:30am 15.3 S 14 19 1020.0 - 7.0 - - - - - - -
20/06:00am 16.0 SSE 15 22 1018.8 - 6.0 Rain - - - - - -
20/05:49am 16.3 S 14 22 1018.5 - 5.8 - - - - - - -
20/05:30am 17.5 SSW 6 11 1018.1 - 5.4 - - - - - - -
20/05:00am 17.9 S 4 7 1017.9 - 5.2 - - - - - - -
20/04:30am 18.8 NW 5 8 1017.2 - 5.0 - - - - - - -
20/04:00am 18.6 NNW 4 7 1016.9 - 4.8 - - - - - - -
20/03:30am 18.6 N 5 7 1017.1 - 4.6 - - - - - - -
20/03:00am 18.6 NNW 5 7 1017.9 - 4.4 Rain - - - - - -
20/02:30am 18.5 S 5 6 1018.2 - 4.2 - - - - - - -
20/02:00am 17.9 CALM 0 1 1018.5 - 4.0 - - - - - - -
20/01:30am 18.3 NW 2 4 1018.8 - 4.0 - - - - - - -
20/01:00am 17.8 NNW 4 5 1019.1 - 3.8 - - - - - - -
20/12:30am 17.5 N 4 5 1019.1 - 3.2 - - - - - - -
20/12:00am 17.6 N 5 7 1019.4 - 2.6 Rain - - - - - -
 
Date/Time
EDT
Temp
°C
Wind Pressure Rain since
9am
mm
Weather Cloud Vis
km
Sea
Height
m
Swell
Dir  Spd
kts
Gust
kts
hPa Trend Height
m
Period
s
Dir
19/11:30pm 17.6 NE 4 6 1019.0 - 2.0 - - - - - - -
19/11:00pm 17.8 S 4 4 1019.0 - 1.0 - - - - - - -
19/10:30pm 18.5 S 1 2 1019.6 - 0.8 - - - - - - -
19/10:00pm 18.2 S 5 7 1019.5 - 0.4 - - - - - - -
19/09:30pm 19.1 NNW 4 7 1018.9 - 0.0 - - - - - - -
19/09:00pm 18.4 N 7 9 1018.2 - 0.0 - - - - - - -
19/08:30pm 18.6 N 6 10 1017.8 - 0.0 - - - - - - -
19/08:00pm 18.8 NW 2 7 1017.7 - 0.0 - - - - - - -
19/07:30pm 18.9 NNW 2 6 1017.6 - 0.0 - - - - - - -
19/07:00pm 19.3 NNE 5 9 1017.3 - 0.0 - - - - - - -
19/06:30pm 19.5 NW 3 6 1017.2 - 0.0 - - - - - - -
19/06:00pm 19.9 NNW 3 7 1016.8 - 0.0 - - - - - - -
19/05:30pm 20.2 NNW 4 8 1016.6 - 0.0 - - - - - - -
19/05:00pm 20.1 N 4 10 1016.7 - 0.0 - - - - - - -
19/04:30pm 20.6 NNE 5 9 1016.9 - 0.0 - - - - - - -
19/04:00pm 20.9 NNE 7 11 1017.2 - 0.0 - - - - - - -
19/03:30pm 20.3 NE 13 20 1017.3 - 0.0 - - - - - - -
19/03:00pm 20.4 NE 14 22 1017.6 - 0.0 - - - - - - -
19/02:30pm 20.9 NE 9 16 1018.0 - 0.0 - - - - - - -
19/02:00pm 20.3 NE 14 20 1018.8 - 0.0 - - - - - - -
19/01:30pm 20.4 NE 14 21 1019.0 - 0.0 - - - - - - -
19/01:00pm 20.2 NNE 15 21 1019.4 - 0.0 - - - - - - -
19/12:30pm 20.2 NNE 13 19 1019.8 - 0.0 - - - - - - -
19/12:00pm 20.4 NNE 13 24 1020.2 - 0.0 - - - - - - -
19/11:30am 20.3 NNE 13 20 1020.8 - 0.0 - - - - - - -
19/11:00am 19.8 NNE 12 18 1021.1 - 0.0 - - - - - - -
19/10:30am 19.4 NE 16 21 1021.4 - 0.0 - - - - - - -
19/10:00am 19.5 NE 15 20 1021.9 - 0.0 - - - - - - -
19/09:30am 19.1 NE 12 16 1022.5 - 0.0 - - - - - - -
19/09:00am 18.9 NE 9 13 1022.7 - 0.0 - - - - - - -
19/08:30am 18.7 N 5 8 1022.8 - 0.0 - - - - - - -
19/08:00am 17.7 NNW 5 10 1023.1 - 0.0 - - - - - - -
19/07:30am 17.1 N 8 12 1023.1 - 0.0 - - - - - - -
19/07:00am 16.6 N 10 13 1022.7 - 0.0 - - - - - - -

Other Formats:

Comma delimited format used in spreadsheet applications
http://www.bom.gov.au/fwo/IDN60701/IDN60701.94938.axf

JavaScript Object Notation format (JSON) in row-major order
http://www.bom.gov.au/fwo/IDN60701/IDN60701.94938.json